Погода Ходулына 2 недели

Могилёвская область, Белоруссия

24 мая-05 июня
  • 24мая
    Сегодня
    +9°
    +21°
    Ясно и безоблачно
    ВремяПогодаТемператураВлажностьДавлениеВетер, м/сВероятность осадков
    00:00Ясно и безоблачно+15°C56 %757 мм4.3 м/с2 %
    03:00Ясно и безоблачно+12°C61 %758 мм4.1 м/с2 %
    06:00Ясно и безоблачно+11°C62 %759 мм4.4 м/с2 %
    09:00Ясно и безоблачно+15°C54 %759 мм4.8 м/с2 %
    12:00Ясно и безоблачно+19°C43 %759 мм5.1 м/с2 %
    15:00Ясно и безоблачно+21°C39 %759 мм4.7 м/с2 %
    18:00Ясно и безоблачно+21°C41 %758 мм4.4 м/с2 %
    21:00Ясно и безоблачно+16°C57 %758 мм3.2 м/с2 %
  • 25мая
    Суббота
    +9°
    +24°
    Ясно и безоблачно
    ВремяПогодаТемператураВлажностьДавлениеВетер, м/сВероятность осадков
    00:00Ясно и безоблачно+13°C60 %759 мм3.5 м/с2 %
    03:00Ясно и безоблачно+11°C63 %758 мм3.2 м/с2 %
    06:00Ясно и безоблачно+11°C69 %758 мм2.9 м/с2 %
    09:00Ясно и безоблачно+17°C60 %758 мм2.7 м/с2 %
    12:00Ясно и безоблачно+21°C48 %758 мм2.7 м/с2 %
    15:00Ясно и безоблачно+23°C40 %757 мм2.7 м/с2 %
    18:00Ясно и безоблачно+23°C40 %756 мм2.2 м/с2 %
    21:00Ясно и безоблачно+17°C65 %756 мм2.2 м/с2 %
  • 26мая
    Воскресенье
    +11°
    +24°
    Небольшая облачность
    ВремяПогодаТемператураВлажностьДавлениеВетер, м/сВероятность осадков
    00:00Ясно и безоблачно+14°C70 %756 мм2.1 м/с2 %
    03:00Ясно и безоблачно+11°C79 %756 мм2.7 м/с2 %
    06:00Облачно с прояснениями+12°C78 %756 мм1.0 м/с2 %
    09:00Облачно с прояснениями+18°C55 %757 мм0.6 м/с2 %
    12:00Облачно с прояснениями+22°C41 %756 мм1.4 м/с2 %
    15:00Небольшая облачность+24°C34 %756 мм1.6 м/с2 %
    18:00Небольшая облачность+24°C37 %755 мм1.5 м/с2 %
    21:00Ясно и безоблачно+17°C67 %755 мм2.5 м/с2 %
  • 27мая
    Понедельник
    +13°
    +25°
    Практически безоблачно
    ВремяПогодаТемператураВлажностьДавлениеВетер, м/сВероятность осадков
    00:00Ясно и безоблачно+15°C76 %755 мм2.0 м/с2 %
    03:00Ясно и безоблачно+13°C80 %755 мм2.0 м/с2 %
    06:00Ясно и безоблачно+14°C83 %756 мм2.5 м/с2 %
    09:00Ясно и безоблачно+20°C72 %756 мм2.5 м/с2 %
    12:00Ясно и безоблачно+24°C52 %757 мм3.2 м/с9 %
    15:00Практически безоблачно+24°C51 %756 мм2.5 м/с25 %
    18:00Небольшая облачность+26°C53 %756 мм2.6 м/с32 %
    21:00Практически безоблачно+19°C72 %756 мм2.9 м/с7 %
Мы используем cookies
Соглашаюсь